Portada
METAR-TAF:

METAR-TAF

Aeroports :

Key Lake, Saskatchewan, Canadà

latitud: 57-15N, longitud: 105-37W, altitud: 509 m

Observació

L'informe es va fer fa 56 minuts, a les 01:00 UTC
Vent 13 kt del Nord/Nord-Oest amb ràfegues de 25 kt
Temperatura 10°C
Humitat 43%
Pressió 997 hPa
Visibilitat: 14.5 km
Núvols disperses a una alçada de 5500 ft
Cel ennuvolat a una alçada de 21000 ft

METAR: CYKJ 170100Z AUTO 34013G25KT 9SM SCT055 BKN210 10/M02 A2944 RMK SLP987 DENSITY ALT 2000FT

Hora: 19:56 (01:56 UTC)

Pronòstic

L'informe es va fer fa 7 hores i 16 minuts, a les 18:40 UTC
Pronòstic vàlid del 16 a les 19 UTC al 16 a les 24 UTC
Vent 18 kt del Nord amb ràfegues de 28 kt
Visibilitat: 10 km
Cel ennuvolat a una alçada de 4000 ft

TAF: CYKJ 161840Z 1619/1624 35018G28KT P6SM BKN040 RMK FCST BASED ON AUTO OBS. NXT FCST BY 171000Z

Observacions i pronòstics meteorològics de més de 4000 aeroports (METAR i TAF).

Les estacions disponibles són els punts grocs i vermells al mapa.

Posi el ratolí al punt desitjat per veure el nom de l'estació.

Feu clic per veure les observacions i els pronòstics meteorològics.

Per canviar el mapa: feu clic els botons verds amb una creu de color negre per apropar; al botó verd amb un guió per allunyar la imatge; o en les fletxes verdes per a mapes adjacents.


METAR-TAF: